createdAt,value
2023-05-07T00:06:43.161Z,11.90
2023-05-07T00:13:34.549Z,11.80
2023-05-07T00:16:12.975Z,11.90
2023-05-07T00:18:48.034Z,11.80
2023-05-07T00:21:23.246Z,11.80
2023-05-07T00:24:00.303Z,11.80
2023-05-07T00:26:34.548Z,11.80
2023-05-07T00:29:10.319Z,11.80
2023-05-07T00:31:44.475Z,11.80
2023-05-07T00:34:19.054Z,11.80
2023-05-07T00:36:53.583Z,11.80
2023-05-07T00:39:32.912Z,11.70
2023-05-07T00:42:11.249Z,11.70
2023-05-07T00:44:46.704Z,11.70
2023-05-07T00:47:20.594Z,11.60
2023-05-07T00:49:55.239Z,11.50
2023-05-07T00:52:31.386Z,11.50
2023-05-07T00:55:09.032Z,11.40
2023-05-07T00:57:43.796Z,11.40
2023-05-07T01:00:19.848Z,11.40
2023-05-07T01:02:54.482Z,11.40
2023-05-07T01:05:31.675Z,11.30
2023-05-07T01:08:07.363Z,11.30
2023-05-07T01:10:44.082Z,11.20
2023-05-07T01:13:18.552Z,11.20
2023-05-07T01:15:53.871Z,11.10
2023-05-07T01:18:28.001Z,11.00
2023-05-07T01:21:04.167Z,10.90
2023-05-07T01:23:40.923Z,10.80
2023-05-07T01:26:14.766Z,10.80
2023-05-07T01:28:51.868Z,10.70
2023-05-07T01:31:26.541Z,10.60
2023-05-07T01:34:03.171Z,10.50
2023-05-07T01:36:39.058Z,10.50
2023-05-07T01:39:15.210Z,10.40
2023-05-07T01:41:49.369Z,10.30
2023-05-07T01:44:24.399Z,10.30
2023-05-07T01:46:59.918Z,10.20
2023-05-07T01:49:33.997Z,10.20
2023-05-07T01:52:07.920Z,10.10
2023-05-07T01:54:43.804Z,10.10
2023-05-07T01:57:20.059Z,10.10
2023-05-07T01:59:53.938Z,10.10
2023-05-07T02:02:27.960Z,10.00
2023-05-07T02:05:04.206Z,10.00
2023-05-07T02:07:38.145Z,9.90
2023-05-07T02:10:16.582Z,9.90
2023-05-07T02:12:50.680Z,9.90
2023-05-07T02:15:24.776Z,9.90
2023-05-07T02:18:04.219Z,9.90
2023-05-07T02:20:38.292Z,9.80
2023-05-07T02:23:12.073Z,9.80
2023-05-07T02:25:47.756Z,9.80
2023-05-07T02:28:21.634Z,9.70
2023-05-07T02:30:59.693Z,9.70
2023-05-07T02:33:36.126Z,9.60
2023-05-07T02:36:13.156Z,9.60
2023-05-07T02:39:05.036Z,9.60
2023-05-07T02:41:41.320Z,9.60
2023-05-07T02:44:16.323Z,9.60
2023-05-07T02:46:51.991Z,9.60
2023-05-07T02:49:26.101Z,9.60
2023-05-07T02:52:00.277Z,9.70
2023-05-07T02:54:34.443Z,9.70
2023-05-07T02:57:09.616Z,9.70
2023-05-07T02:59:43.825Z,9.70
2023-05-07T03:02:18.528Z,9.70
2023-05-07T03:04:52.922Z,9.80
2023-05-07T03:07:26.803Z,9.80
2023-05-07T03:10:01.251Z,9.80
2023-05-07T03:12:37.689Z,9.80
2023-05-07T03:15:13.789Z,9.90
2023-05-07T03:17:48.191Z,9.90
2023-05-07T03:20:22.504Z,9.90
2023-05-07T03:22:56.968Z,9.90
2023-05-07T03:25:31.224Z,10.00
2023-05-07T03:28:06.908Z,9.90
2023-05-07T03:30:49.467Z,10.00
2023-05-07T03:33:23.127Z,10.00
2023-05-07T03:35:57.271Z,10.00
2023-05-07T03:38:32.904Z,10.00
2023-05-07T03:41:06.904Z,10.00
2023-05-07T03:43:42.850Z,10.00
2023-05-07T03:46:19.297Z,10.10
2023-05-07T03:48:53.476Z,10.10
2023-05-07T03:51:28.586Z,10.10
2023-05-07T03:54:02.610Z,10.10
2023-05-07T03:56:38.362Z,10.10
2023-05-07T03:59:14.580Z,10.10
2023-05-07T04:01:51.313Z,10.20
2023-05-07T04:04:28.840Z,10.20
2023-05-07T04:07:04.425Z,10.30
2023-05-07T04:09:44.258Z,10.40
2023-05-07T04:12:18.842Z,10.40
2023-05-07T04:14:54.591Z,10.40
2023-05-07T04:17:29.156Z,10.50
2023-05-07T04:20:03.429Z,10.50
2023-05-07T04:22:38.117Z,10.60
2023-05-07T04:25:12.794Z,10.60
2023-05-07T04:27:46.516Z,10.60
2023-05-07T04:30:22.977Z,10.70
2023-05-07T04:32:57.423Z,10.70
2023-05-07T04:35:33.679Z,10.70
2023-05-07T04:38:07.894Z,10.80
2023-05-07T04:40:42.639Z,10.80
2023-05-07T04:43:19.106Z,10.80
2023-05-07T04:45:58.478Z,10.90
2023-05-07T04:48:34.415Z,10.90
2023-05-07T04:51:10.200Z,11.00
2023-05-07T04:53:45.249Z,11.00
2023-05-07T04:56:19.605Z,11.10
2023-05-07T04:58:54.768Z,11.10
2023-05-07T05:01:30.872Z,11.10
2023-05-07T05:04:05.092Z,11.20
2023-05-07T05:06:38.865Z,11.30
2023-05-07T05:09:14.167Z,11.30
2023-05-07T05:11:49.134Z,11.40
2023-05-07T05:14:23.137Z,11.50
2023-05-07T05:16:59.663Z,11.50
2023-05-07T05:19:33.937Z,11.60
2023-05-07T05:22:07.856Z,11.70
2023-05-07T05:24:42.426Z,11.70
2023-05-07T05:27:17.014Z,11.80
2023-05-07T05:29:51.178Z,11.90
2023-05-07T05:32:26.955Z,11.90
2023-05-07T05:35:04.634Z,11.90
2023-05-07T05:37:38.831Z,12.00
2023-05-07T05:40:16.902Z,12.10
2023-05-07T05:42:53.372Z,12.30
2023-05-07T05:45:33.635Z,12.40
2023-05-07T05:48:09.722Z,12.50
2023-05-07T05:50:44.883Z,12.60
2023-05-07T05:53:18.979Z,12.70
2023-05-07T05:55:52.759Z,12.80
2023-05-07T05:58:26.470Z,13.00
2023-05-07T06:01:06.516Z,13.10
2023-05-07T06:03:44.290Z,13.20
2023-05-07T06:06:21.678Z,13.30
2023-05-07T06:08:55.555Z,13.40
2023-05-07T06:11:38.885Z,13.50
2023-05-07T06:16:24.761Z,13.50
2023-05-07T06:20:12.207Z,13.60
2023-05-07T06:22:47.502Z,13.60
2023-05-07T06:25:23.257Z,13.60
2023-05-07T06:27:57.202Z,13.70
2023-05-07T06:30:32.773Z,13.80
2023-05-07T06:33:07.039Z,13.80
2023-05-07T06:35:42.675Z,13.90
2023-05-07T06:38:16.805Z,14.00
2023-05-07T06:40:52.257Z,13.90
2023-05-07T06:43:26.630Z,14.00
2023-05-07T06:46:21.076Z,14.10
2023-05-07T06:48:55.108Z,14.20
2023-05-07T06:51:30.533Z,14.20
2023-05-07T06:54:09.370Z,14.30
2023-05-07T06:56:46.335Z,14.30
2023-05-07T06:59:21.743Z,14.30
2023-05-07T07:01:56.592Z,14.40
2023-05-07T07:04:31.302Z,14.40
2023-05-07T07:07:11.931Z,14.40
2023-05-07T07:09:47.742Z,14.40
2023-05-07T07:12:27.223Z,14.40
2023-05-07T07:15:01.499Z,14.40
2023-05-07T07:17:37.280Z,14.40
2023-05-07T07:20:13.770Z,14.30
2023-05-07T07:22:50.059Z,14.30
2023-05-07T07:25:24.807Z,14.30
2023-05-07T07:27:58.857Z,14.30
2023-05-07T07:30:35.017Z,14.30
2023-05-07T07:33:09.548Z,14.40
2023-05-07T07:35:45.526Z,14.40
2023-05-07T07:38:21.006Z,14.40
2023-05-07T07:40:55.380Z,14.40
2023-05-07T07:43:30.364Z,14.30
2023-05-07T07:46:06.654Z,14.20
2023-05-07T07:48:41.163Z,14.20
2023-05-07T07:51:16.219Z,14.20
2023-05-07T07:53:53.175Z,14.20
2023-05-07T07:56:27.273Z,14.20
2023-05-07T07:59:02.530Z,14.30
2023-05-07T08:01:36.938Z,14.20
2023-05-07T08:04:11.219Z,14.10
2023-05-07T08:06:48.552Z,14.30
2023-05-07T08:09:23.884Z,14.40
2023-05-07T08:11:59.231Z,14.60
2023-05-07T08:14:33.129Z,14.70
2023-05-07T08:17:10.417Z,14.70
2023-05-07T08:19:45.663Z,14.70
2023-05-07T08:22:21.896Z,14.80
2023-05-07T08:25:17.098Z,14.80
2023-05-07T08:27:52.164Z,14.90
2023-05-07T08:30:41.859Z,15.00
2023-05-07T08:33:16.014Z,15.20
2023-05-07T08:35:50.421Z,15.20
2023-05-07T08:38:24.875Z,15.30
2023-05-07T08:41:00.720Z,15.20
2023-05-07T08:43:40.689Z,15.20
2023-05-07T08:46:19.722Z,15.10
2023-05-07T08:48:54.490Z,15.10
2023-05-07T08:51:28.290Z,15.10
2023-05-07T08:54:09.179Z,15.10
2023-05-07T08:57:24.986Z,15.00
2023-05-07T09:00:03.318Z,15.00
2023-05-07T09:02:40.099Z,14.90
2023-05-07T09:15:33.474Z,14.70
2023-05-07T09:19:17.554Z,14.50
2023-05-07T09:50:37.399Z,13.70
2023-05-07T09:53:40.404Z,13.20
2023-05-07T09:56:51.566Z,13.10
2023-05-07T09:59:30.494Z,12.90
2023-05-07T10:02:14.783Z,12.70
2023-05-07T10:04:56.997Z,12.70
2023-05-07T10:07:38.411Z,12.60
2023-05-07T10:10:20.782Z,12.60
2023-05-07T10:12:55.786Z,12.50
2023-05-07T10:15:37.808Z,12.50
2023-05-07T10:18:44.023Z,12.40
2023-05-07T10:26:50.975Z,12.20
2023-05-07T10:29:40.488Z,12.10
2023-05-07T10:32:33.243Z,12.10
2023-05-07T10:35:39.318Z,12.00
2023-05-07T10:41:22.363Z,11.90
2023-05-07T10:45:37.833Z,11.80
2023-05-07T10:51:27.469Z,11.80
2023-05-07T10:58:31.809Z,11.80
2023-05-07T11:05:41.184Z,11.70
2023-05-07T11:08:24.917Z,11.70
2023-05-07T11:11:16.645Z,11.70
2023-05-07T11:14:02.850Z,11.70
2023-05-07T11:21:37.975Z,11.80
2023-05-07T11:24:23.334Z,11.80
2023-05-07T11:27:04.639Z,11.70
2023-05-07T11:29:41.640Z,11.80
2023-05-07T11:32:25.736Z,11.80
2023-05-07T11:35:05.071Z,12.00
2023-05-07T11:37:42.057Z,11.80
2023-05-07T11:40:16.844Z,11.80
2023-05-07T11:45:27.404Z,11.80
2023-05-07T11:48:01.335Z,11.80
2023-05-07T11:50:35.119Z,11.80
2023-05-07T11:53:13.972Z,11.70
2023-05-07T11:55:48.261Z,11.80
2023-05-07T11:58:24.742Z,11.80
2023-05-07T12:00:59.112Z,11.70
2023-05-07T12:03:36.249Z,11.60
2023-05-07T12:06:10.592Z,11.60
2023-05-07T12:08:48.329Z,11.60
2023-05-07T12:11:26.954Z,11.60
2023-05-07T12:14:01.010Z,11.70
2023-05-07T12:16:35.267Z,11.60
2023-05-07T12:19:10.040Z,11.60
2023-05-07T12:21:44.098Z,11.60
2023-05-07T12:24:21.799Z,11.60
2023-05-07T12:26:57.032Z,11.50
2023-05-07T12:29:31.061Z,11.40
2023-05-07T12:32:07.080Z,11.30
2023-05-07T12:34:45.519Z,11.20
2023-05-07T12:41:14.690Z,11.10
2023-05-07T12:43:48.858Z,11.10
2023-05-07T12:46:24.744Z,11.10
2023-05-07T12:48:58.617Z,10.90
2023-05-07T12:51:32.303Z,10.90
2023-05-07T12:54:17.819Z,10.80
2023-05-07T13:01:51.697Z,10.90
2023-05-07T13:04:39.377Z,10.80
2023-05-07T13:08:20.960Z,10.80
2023-05-07T13:17:58.011Z,10.50
2023-05-07T13:20:32.594Z,10.40
2023-05-07T13:23:13.304Z,10.40
2023-05-07T13:25:47.552Z,10.30
2023-05-07T13:28:23.019Z,10.20
2023-05-07T13:32:00.302Z,10.20
2023-05-07T13:44:44.845Z,10.10
2023-05-07T13:47:18.891Z,10.00
2023-05-07T13:49:58.358Z,10.00
2023-05-07T13:52:36.369Z,9.90
2023-05-07T13:55:19.848Z,9.90
2023-05-07T13:58:00.870Z,9.80
2023-05-07T14:00:53.905Z,9.70
2023-05-07T14:03:27.982Z,9.70
2023-05-07T14:06:03.872Z,9.60
2023-05-07T14:08:51.638Z,9.50
2023-05-07T14:11:57.131Z,9.50
2023-05-07T14:14:31.724Z,9.40
2023-05-07T14:17:17.243Z,9.30
2023-05-07T14:19:51.831Z,9.20
2023-05-07T14:26:08.454Z,9.10
2023-05-07T14:28:48.364Z,9.10
2023-05-07T14:40:54.802Z,8.90
2023-05-07T14:44:03.422Z,8.80
2023-05-07T15:01:42.118Z,8.50
2023-05-07T15:19:38.076Z,8.10
2023-05-07T15:23:28.428Z,8.10
2023-05-07T15:34:57.693Z,8.10
2023-05-07T15:59:08.515Z,8.00
2023-05-07T16:01:48.897Z,8.00
2023-05-07T16:09:33.077Z,7.90
2023-05-07T16:12:19.869Z,7.80
2023-05-07T16:18:13.259Z,7.70
2023-05-07T16:25:18.838Z,7.60
2023-05-07T16:28:03.165Z,7.50
2023-05-07T16:31:08.647Z,7.50
2023-05-07T16:33:45.807Z,7.50
2023-05-07T16:36:48.336Z,7.40
2023-05-07T16:42:18.853Z,7.30
2023-05-07T16:45:26.361Z,7.30
2023-05-07T16:48:13.893Z,7.30
2023-05-07T17:04:10.328Z,7.00
2023-05-07T17:07:47.852Z,6.90
2023-05-07T17:32:08.645Z,6.80
2023-05-07T17:34:50.164Z,6.80
2023-05-07T17:56:12.645Z,6.90
2023-05-07T18:07:58.004Z,6.80
2023-05-07T18:10:56.483Z,6.80
2023-05-07T18:14:00.198Z,6.80
2023-05-07T18:35:18.800Z,6.70
2023-05-07T18:37:53.837Z,6.60
2023-05-07T18:40:46.730Z,6.60
2023-05-07T18:47:45.766Z,6.60
2023-05-07T19:03:02.021Z,6.40
2023-05-07T19:09:57.121Z,6.50
2023-05-07T19:12:48.855Z,6.50
2023-05-07T19:15:31.882Z,6.50
2023-05-07T19:18:09.970Z,6.50
2023-05-07T19:20:55.819Z,6.40
2023-05-07T19:23:56.720Z,6.40
2023-05-07T19:27:25.731Z,6.40
2023-05-07T19:30:09.854Z,6.30
2023-05-07T19:48:02.862Z,6.30
2023-05-07T19:50:44.142Z,6.30
2023-05-07T20:00:15.973Z,6.20
2023-05-07T20:03:25.144Z,6.20
2023-05-07T20:06:06.672Z,6.20
2023-05-07T20:08:47.877Z,6.20
2023-05-07T20:11:26.704Z,6.20
2023-05-07T20:14:16.596Z,6.20
2023-05-07T20:17:04.858Z,6.10
2023-05-07T20:19:38.993Z,6.10
2023-05-07T20:22:16.353Z,6.10
2023-05-07T20:24:51.721Z,6.10
2023-05-07T20:38:41.186Z,6.10
2023-05-07T20:41:41.924Z,6.10
2023-05-07T20:44:50.338Z,6.00
2023-05-07T20:56:07.487Z,6.10
2023-05-07T21:04:18.052Z,6.10
2023-05-07T21:06:54.813Z,6.00
2023-05-07T21:09:30.627Z,6.00
2023-05-07T21:12:05.039Z,6.00
2023-05-07T21:14:40.556Z,6.00
2023-05-07T21:17:14.820Z,6.00
2023-05-07T21:19:50.261Z,6.00
2023-05-07T21:22:25.660Z,6.00
2023-05-07T21:24:59.908Z,6.00
2023-05-07T21:27:34.521Z,6.00
2023-05-07T21:30:11.298Z,6.00
2023-05-07T21:32:46.067Z,6.00
2023-05-07T21:35:20.529Z,6.00
2023-05-07T21:37:56.847Z,6.00
2023-05-07T21:40:34.570Z,6.00
2023-05-07T21:43:08.965Z,6.00
2023-05-07T21:45:46.202Z,6.00
2023-05-07T21:48:28.913Z,6.00
2023-05-07T21:51:09.216Z,5.90
2023-05-07T21:53:55.459Z,5.90
2023-05-07T21:57:36.040Z,5.90
2023-05-07T22:00:27.081Z,5.90
2023-05-07T22:03:02.364Z,5.90
2023-05-07T22:05:36.759Z,5.90
2023-05-07T22:08:10.738Z,5.90
2023-05-07T22:10:46.507Z,5.90
2023-05-07T22:13:20.880Z,5.90
2023-05-07T22:15:57.983Z,5.80
2023-05-07T22:18:33.085Z,5.90
2023-05-07T22:21:07.676Z,5.80
2023-05-07T22:23:44.494Z,5.80
2023-05-07T22:26:22.812Z,5.80
2023-05-07T22:28:56.706Z,5.80
2023-05-07T22:31:30.583Z,5.80
2023-05-07T22:34:04.510Z,5.80
2023-05-07T22:36:38.704Z,5.80
2023-05-07T22:39:13.986Z,5.80
2023-05-07T22:41:57.156Z,5.80
2023-05-07T22:44:32.956Z,5.80
2023-05-07T22:47:10.069Z,5.80
2023-05-07T22:49:59.675Z,5.80
2023-05-07T22:57:26.211Z,5.80
2023-05-07T23:00:01.426Z,5.80
2023-05-07T23:08:22.543Z,5.80
2023-05-07T23:11:11.585Z,5.80
2023-05-07T23:17:05.202Z,5.70
2023-05-07T23:20:14.073Z,5.80
2023-05-07T23:23:08.096Z,5.80
2023-05-07T23:26:18.307Z,5.70
2023-05-07T23:29:19.451Z,5.80
2023-05-07T23:32:44.705Z,5.70
2023-05-07T23:40:04.713Z,5.70
2023-05-07T23:42:39.946Z,5.70
2023-05-07T23:45:31.531Z,5.70
2023-05-07T23:48:12.378Z,5.60
2023-05-07T23:50:56.221Z,5.60
2023-05-07T23:53:35.011Z,5.60
2023-05-07T23:56:36.030Z,5.60
